Time;durP1;ratioP1;P1;durP2;ratioP2;P2;SDS_P1;SDS_P2;PMS_P1;PMS_P2;Temp;Humidity;BMP_temperature;BMP_pressure;BME280_temperature;BME280_humidity;BME280_pressure;Samples;Min_cycle;Max_cycle;Signal;HPM_P1;HPM_P2
2021/04/06 00:01:59;;;;;;;12.97;0.87;;;3.20;93.20;;;;;;5031931;28;20075;-77
2021/04/06 00:04:34;;;;;;;7.80;0.73;;;3.20;93.20;;;;;;5067072;28;20079;-76
2021/04/06 00:07:05;;;;;;;13.43;0.77;;;3.20;93.10;;;;;;5067685;28;20047;-76
2021/04/06 00:09:34;;;;;;;12.20;1.40;;;3.10;93.30;;;;;;5085000;28;20596;-76
2021/04/06 00:12:04;;;;;;;9.53;0.97;;;3.00;93.60;;;;;;5066852;28;20117;-76
2021/04/06 00:14:33;;;;;;;7.27;0.63;;;2.90;93.90;;;;;;5081034;28;20047;-76
2021/04/06 00:17:01;;;;;;;16.10;1.10;;;2.80;94.10;;;;;;5083001;28;20040;-76
2021/04/06 00:19:36;;;;;;;8.00;0.90;;;2.70;94.30;;;;;;5084346;28;20071;-76
2021/04/06 00:22:05;;;;;;;8.43;1.08;;;2.60;94.70;;;;;;5083388;28;20048;-76
2021/04/06 00:24:35;;;;;;;16.20;1.20;;;2.60;94.70;;;;;;5082397;28;20085;-76
2021/04/06 00:27:14;;;;;;;10.45;0.70;;;2.60;94.90;;;;;;5084959;28;20058;-76
2021/04/06 00:29:44;;;;;;;14.57;1.30;;;2.60;95.00;;;;;;5083567;28;20379;-76
2021/04/06 00:32:13;;;;;;;12.90;1.37;;;2.50;95.10;;;;;;5066484;28;20035;-76
2021/04/06 00:34:41;;;;;;;10.17;0.93;;;2.50;95.20;;;;;;5068116;28;20040;-76
2021/04/06 00:37:12;;;;;;;8.37;0.97;;;2.50;95.30;;;;;;5085634;28;20036;-76
2021/04/06 00:39:43;;;;;;;11.27;0.93;;;2.40;95.40;;;;;;5083703;28;20032;-76
2021/04/06 00:42:17;;;;;;;14.43;1.20;;;2.40;95.50;;;;;;5083026;28;20078;-76
2021/04/06 00:45:01;;;;;;;13.03;1.27;;;2.40;95.60;;;;;;5082549;28;20063;-78
2021/04/06 00:47:30;;;;;;;14.10;1.40;;;2.50;95.70;;;;;;5085641;28;20040;-78
2021/04/06 00:50:01;;;;;;;15.00;1.00;;;2.50;95.70;;;;;;5084470;28;20067;-78
2021/04/06 00:52:28;;;;;;;13.30;1.13;;;2.50;95.70;;;;;;5064704;28;20604;-78
2021/04/06 00:55:00;;;;;;;17.37;1.50;;;2.60;95.80;;;;;;5066474;28;20498;-79
2021/04/06 00:57:28;;;;;;;9.40;1.10;;;2.60;95.80;;;;;;5084396;28;20498;-78
2021/04/06 01:00:25;;;;;;;10.73;1.27;;;2.60;95.80;;;;;;5051177;28;20028;-78
2021/04/06 01:03:10;;;;;;;10.63;1.30;;;2.70;95.90;;;;;;5083286;28;20051;-76
2021/04/06 01:06:00;;;;;;;11.97;1.63;;;2.70;95.90;;;;;;5083764;28;20040;-76
2021/04/06 01:08:27;;;;;;;17.13;1.67;;;2.80;95.90;;;;;;5062924;28;20070;-76
2021/04/06 01:10:55;;;;;;;18.00;2.17;;;2.80;95.90;;;;;;5082488;28;20043;-76
2021/04/06 01:13:24;;;;;;;26.73;3.07;;;2.70;95.80;;;;;;5080861;28;20402;-76
2021/04/06 01:15:55;;;;;;;15.43;1.20;;;2.70;95.90;;;;;;5084601;28;20047;-78
2021/04/06 01:18:23;;;;;;;16.73;1.53;;;2.60;95.90;;;;;;5081868;28;20044;-78
2021/04/06 01:20:54;;;;;;;15.77;2.03;;;2.60;96.00;;;;;;5067413;28;20044;-79
2021/04/06 01:23:22;;;;;;;16.10;1.43;;;2.60;96.10;;;;;;5083706;28;20048;-79
2021/04/06 01:25:54;;;;;;;12.47;1.20;;;2.50;96.10;;;;;;5066962;28;20055;-76
2021/04/06 01:28:25;;;;;;;22.58;2.80;;;2.50;96.10;;;;;;5084164;28;20055;-76
2021/04/06 01:30:52;;;;;;;23.50;1.67;;;2.50;96.20;;;;;;5065871;28;20036;-76
2021/04/06 01:33:22;;;;;;;21.23;2.00;;;2.50;96.50;;;;;;5064680;28;20028;-76
2021/04/06 01:35:53;;;;;;;15.80;1.63;;;2.60;96.30;;;;;;5081658;28;20501;-76
2021/04/06 01:38:25;;;;;;;17.27;1.33;;;2.70;96.30;;;;;;5083899;28;20044;-76
2021/04/06 01:40:53;;;;;;;13.90;2.47;;;2.70;96.30;;;;;;5081075;28;20399;-76
2021/04/06 01:43:22;;;;;;;22.17;2.00;;;2.70;96.20;;;;;;5082357;28;20032;-76
2021/04/06 01:45:51;;;;;;;16.30;1.40;;;2.70;96.20;;;;;;5083454;28;20040;-79
2021/04/06 01:48:19;;;;;;;14.50;1.50;;;2.70;96.10;;;;;;5066169;28;20047;-76
2021/04/06 01:50:53;;;;;;;15.53;1.43;;;2.60;96.20;;;;;;5063958;28;20036;-76
2021/04/06 01:53:22;;;;;;;18.03;1.70;;;2.50;96.20;;;;;;5064731;28;20032;-79
2021/04/06 01:55:53;;;;;;;25.23;2.17;;;2.40;96.30;;;;;;5065338;28;20032;-80
2021/04/06 01:58:28;;;;;;;16.40;1.57;;;2.40;96.30;;;;;;5084025;28;20039;-80
2021/04/06 02:03:35;;;;;;;19.33;1.67;;;2.50;96.50;;;;;;5083048;28;20051;-79
2021/04/06 02:06:02;;;;;;;26.63;1.80;;;2.50;96.40;;;;;;5083836;28;20814;-79
2021/04/06 02:08:31;;;;;;;22.57;1.80;;;2.50;96.40;;;;;;5050380;28;20044;-80
2021/04/06 02:10:58;;;;;;;17.53;1.53;;;2.50;96.40;;;;;;5083378;28;20040;-76
2021/04/06 02:13:24;;;;;;;33.00;3.10;;;2.50;96.40;;;;;;5079128;28;20133;-76
2021/04/06 02:15:57;;;;;;;25.40;2.87;;;2.50;96.40;;;;;;5082277;28;20803;-76
2021/04/06 02:18:25;;;;;;;26.08;1.85;;;2.50;96.40;;;;;;5062144;28;20059;-79
2021/04/06 02:20:57;;;;;;;20.33;2.00;;;2.50;96.40;;;;;;5056706;28;20035;-79
2021/04/06 02:23:24;;;;;;;23.88;2.70;;;2.50;96.40;;;;;;5063549;28;20035;-79
2021/04/06 02:25:55;;;;;;;17.03;1.60;;;2.50;96.30;;;;;;5066586;28;20051;-79
2021/04/06 02:28:24;;;;;;;21.03;2.17;;;2.50;96.30;;;;;;5066877;28;20059;-79
2021/04/06 02:31:03;;;;;;;29.67;2.47;;;2.40;96.20;;;;;;5070812;28;20036;-79
2021/04/06 02:33:32;;;;;;;30.30;2.83;;;2.30;96.30;;;;;;5086369;28;20043;-79
2021/04/06 02:36:07;;;;;;;15.97;1.87;;;2.30;96.30;;;;;;5087972;28;20406;-79
2021/04/06 02:38:38;;;;;;;19.60;1.73;;;2.30;96.30;;;;;;5069447;28;20052;-80
2021/04/06 02:41:14;;;;;;;25.20;2.00;;;2.20;96.30;;;;;;5087424;28;20036;-79
2021/04/06 02:43:46;;;;;;;13.87;1.47;;;2.20;96.40;;;;;;5085268;28;21391;-79
2021/04/06 02:46:35;;;;;;;23.42;2.33;;;2.20;96.40;;;;;;5087016;28;20903;-80
2021/04/06 02:49:02;;;;;;;23.50;2.03;;;2.10;96.60;;;;;;5053964;28;20039;-79
2021/04/06 02:51:29;;;;;;;23.07;1.77;;;2.10;96.30;;;;;;5069980;28;20043;-80
2021/04/06 02:53:55;;;;;;;20.50;1.67;;;2.10;96.30;;;;;;5086829;28;20051;-80
2021/04/06 02:56:31;;;;;;;16.20;1.07;;;2.10;96.40;;;;;;5089250;28;20051;-79
2021/04/06 02:59:16;;;;;;;20.63;1.30;;;2.10;95.80;;;;;;5084647;28;20055;-80
2021/04/06 03:01:44;;;;;;;12.50;1.63;;;2.10;95.60;;;;;;5086517;28;20485;-80
2021/04/06 03:04:27;;;;;;;18.97;2.50;;;2.10;95.60;;;;;;5084717;28;20066;-80
2021/04/06 03:06:58;;;;;;;13.90;1.00;;;2.20;95.50;;;;;;5069298;28;20036;-79
2021/04/06 03:09:26;;;;;;;11.53;1.23;;;2.20;95.50;;;;;;5069485;28;20040;-80
2021/04/06 03:11:54;;;;;;;20.87;1.33;;;2.30;95.20;;;;;;5067710;28;20402;-79
2021/04/06 03:14:23;;;;;;;15.73;1.90;;;2.30;95.20;;;;;;5067982;28;20036;-79
2021/04/06 03:16:51;;;;;;;12.93;1.70;;;2.20;95.30;;;;;;5086129;28;20040;-79
2021/04/06 03:19:18;;;;;;;9.70;0.80;;;2.10;95.50;;;;;;5089016;28;20114;-79
2021/04/06 03:21:46;;;;;;;6.80;0.60;;;2.00;95.70;;;;;;5073001;28;20039;-79
2021/04/06 03:24:12;;;;;;;8.60;0.97;;;2.00;95.90;;;;;;5052588;28;20048;-79
2021/04/06 03:26:39;;;;;;;8.23;0.70;;;2.00;96.00;;;;;;5095992;28;20036;-79
2021/04/06 03:29:05;;;;;;;15.67;1.50;;;2.00;96.00;;;;;;5097271;28;20052;-79
2021/04/06 03:31:33;;;;;;;11.50;0.87;;;2.00;96.10;;;;;;5082158;28;20047;-79
2021/04/06 03:34:01;;;;;;;14.23;1.17;;;2.00;96.10;;;;;;5060093;28;20036;-79
2021/04/06 03:36:32;;;;;;;9.97;0.80;;;2.00;96.10;;;;;;5090753;28;20387;-79
2021/04/06 03:39:05;;;;;;;4.87;0.80;;;1.90;96.00;;;;;;5081615;28;20039;-79
2021/04/06 03:41:33;;;;;;;12.63;1.00;;;1.90;96.10;;;;;;5093259;28;20371;-79
2021/04/06 03:44:17;;;;;;;9.17;0.70;;;1.80;96.00;;;;;;5087894;28;20125;-79
2021/04/06 03:46:56;;;;;;;9.73;0.60;;;1.70;96.00;;;;;;5088511;28;20031;-79
2021/04/06 03:49:26;;;;;;;13.60;0.93;;;1.60;96.00;;;;;;5068606;28;20388;-79
2021/04/06 03:51:57;;;;;;;7.20;0.60;;;1.60;96.10;;;;;;5084186;28;20489;-80
2021/04/06 03:54:40;;;;;;;9.00;0.57;;;1.50;96.10;;;;;;5067454;28;20044;-80
2021/04/06 03:59:58;;;;;;;7.57;0.60;;;1.40;96.50;;;;;;5087168;28;19919;-80
2021/04/06 04:02:25;;;;;;;9.87;0.70;;;1.40;96.30;;;;;;5086886;28;20056;-80
2021/04/06 04:04:53;;;;;;;13.47;0.60;;;1.40;96.30;;;;;;5067001;28;20060;-80
2021/04/06 04:07:19;;;;;;;5.67;0.53;;;1.30;96.30;;;;;;5052900;28;20504;-80
2021/04/06 04:09:46;;;;;;;8.80;0.60;;;1.30;96.40;;;;;;5067926;28;20063;-80
2021/04/06 04:12:13;;;;;;;12.33;0.83;;;1.30;96.40;;;;;;5067612;28;20078;-76
2021/04/06 04:14:40;;;;;;;16.47;0.90;;;1.30;96.50;;;;;;5084429;28;20031;-76
2021/04/06 04:17:07;;;;;;;10.30;0.97;;;1.30;96.50;;;;;;5085290;28;20040;-76
2021/04/06 04:19:34;;;;;;;9.97;0.77;;;1.30;96.60;;;;;;5083329;28;20059;-76
2021/04/06 04:22:01;;;;;;;9.47;1.00;;;1.40;96.60;;;;;;5084857;28;20066;-76
2021/04/06 04:24:27;;;;;;;10.07;0.90;;;1.40;96.60;;;;;;5085172;28;20055;-76
2021/04/06 04:26:54;;;;;;;8.13;0.80;;;1.40;96.60;;;;;;5067697;28;20585;-76
2021/04/06 04:29:21;;;;;;;16.67;0.90;;;1.40;96.70;;;;;;5084503;28;20052;-76
2021/04/06 04:31:49;;;;;;;13.43;1.00;;;1.40;96.80;;;;;;5066942;28;20059;-76
2021/04/06 04:34:17;;;;;;;9.23;0.83;;;1.40;96.80;;;;;;5084579;28;20916;-76
2021/04/06 04:36:44;;;;;;;10.53;1.00;;;1.50;96.80;;;;;;5085799;28;20024;-76
2021/04/06 04:39:10;;;;;;;13.47;1.27;;;1.50;97.10;;;;;;5065230;28;20036;-76
2021/04/06 04:41:37;;;;;;;12.50;1.17;;;1.60;96.80;;;;;;5083311;28;20036;-76
2021/04/06 04:44:03;;;;;;;16.80;1.00;;;1.70;96.80;;;;;;5080225;28;20039;-76
2021/04/06 04:46:30;;;;;;;13.00;0.83;;;1.70;96.70;;;;;;5066288;28;20297;-75
2021/04/06 04:48:57;;;;;;;8.43;0.90;;;1.80;96.70;;;;;;5083600;28;20514;-75
2021/04/06 04:51:23;;;;;;;8.10;1.07;;;1.80;96.70;;;;;;5084325;28;20055;-76
2021/04/06 04:53:51;;;;;;;12.17;1.03;;;1.70;96.60;;;;;;5048375;28;20056;-76
2021/04/06 04:56:17;;;;;;;9.93;1.10;;;1.70;96.60;;;;;;5084885;28;20035;-76
2021/04/06 04:58:44;;;;;;;9.27;0.97;;;1.60;96.60;;;;;;5082371;28;20040;-76
2021/04/06 05:01:11;;;;;;;10.03;0.70;;;1.50;96.70;;;;;;5050363;28;20027;-76
2021/04/06 05:03:38;;;;;;;10.30;0.73;;;1.50;96.80;;;;;;5079577;28;20063;-76
2021/04/06 05:06:05;;;;;;;11.03;0.90;;;1.50;96.90;;;;;;5046184;28;20048;-75
2021/04/06 05:08:31;;;;;;;17.27;0.70;;;1.60;96.90;;;;;;5065696;28;20051;-76
2021/04/06 05:10:58;;;;;;;14.97;0.93;;;1.70;96.90;;;;;;5066397;28;20040;-76
2021/04/06 05:13:26;;;;;;;10.83;0.90;;;1.70;96.80;;;;;;5064449;28;20122;-76
2021/04/06 05:15:54;;;;;;;11.97;0.97;;;1.80;96.80;;;;;;5063833;28;20494;-76
2021/04/06 05:18:20;;;;;;;9.70;0.60;;;1.70;96.90;;;;;;5084190;28;20043;-76
2021/04/06 05:20:47;;;;;;;5.87;0.50;;;1.70;96.70;;;;;;5084236;28;20043;-74
2021/04/06 05:23:14;;;;;;;11.10;0.80;;;1.60;96.70;;;;;;5062946;28;20044;-77
2021/04/06 05:25:40;;;;;;;7.93;0.50;;;1.60;96.80;;;;;;5083066;28;20043;-77
2021/04/06 05:28:07;;;;;;;7.50;1.37;;;1.60;96.80;;;;;;5082911;28;20043;-79
2021/04/06 05:30:34;;;;;;;7.47;0.90;;;1.60;96.80;;;;;;5068414;28;20036;-79
2021/04/06 05:33:01;;;;;;;13.17;1.87;;;1.60;96.80;;;;;;5068537;28;20044;-79
2021/04/06 05:35:27;;;;;;;15.63;1.60;;;1.50;96.90;;;;;;5085267;28;20032;-80
2021/04/06 05:37:54;;;;;;;10.80;1.43;;;1.50;96.90;;;;;;5082327;28;20604;-80
2021/04/06 05:40:20;;;;;;;9.07;1.20;;;1.40;96.90;;;;;;5085524;28;20032;-79
2021/04/06 05:42:47;;;;;;;10.53;1.00;;;1.40;97.00;;;;;;5064894;28;20498;-80
2021/04/06 05:45:16;;;;;;;10.03;1.43;;;1.40;97.00;;;;;;5066965;28;20857;-80
2021/04/06 05:47:46;;;;;;;13.53;1.20;;;1.40;97.10;;;;;;5083624;28;20040;-80
2021/04/06 05:50:13;;;;;;;11.00;1.07;;;1.40;97.10;;;;;;5066240;28;20054;-80
2021/04/06 05:52:43;;;;;;;9.77;1.33;;;1.50;97.10;;;;;;5062456;28;20035;-80
2021/04/06 05:55:10;;;;;;;10.33;1.00;;;1.60;97.10;;;;;;5083960;28;20604;-80
2021/04/06 05:57:37;;;;;;;8.57;0.80;;;1.60;97.30;;;;;;5050322;28;20380;-80
2021/04/06 06:00:09;;;;;;;10.23;1.07;;;1.70;97.10;;;;;;5083024;28;20042;-80
2021/04/06 06:02:38;;;;;;;7.70;1.20;;;1.80;97.00;;;;;;5080682;28;20052;-80
2021/04/06 06:05:06;;;;;;;7.67;0.60;;;1.90;97.00;;;;;;5047461;28;20379;-80
2021/04/06 06:07:34;;;;;;;11.53;1.10;;;2.00;96.90;;;;;;5066749;28;21522;-80
2021/04/06 06:10:28;;;;;;;11.53;1.13;;;2.10;96.90;;;;;;5084690;28;20074;-80
2021/04/06 06:13:14;;;;;;;12.23;1.27;;;2.30;96.80;;;;;;5081072;28;20826;-80
2021/04/06 06:15:41;;;;;;;13.73;1.03;;;2.50;96.60;;;;;;5083660;28;20032;-80
2021/04/06 06:18:08;;;;;;;10.03;0.90;;;2.70;96.40;;;;;;5065468;28;20040;-80
2021/04/06 06:20:36;;;;;;;8.87;1.30;;;2.80;96.10;;;;;;5062903;28;20044;-80
2021/04/06 06:23:19;;;;;;;12.83;0.60;;;2.80;96.00;;;;;;5082695;28;20473;-80
2021/04/06 06:26:04;;;;;;;13.37;1.40;;;2.80;96.00;;;;;;5082929;28;20043;-80
2021/04/06 06:28:31;;;;;;;21.30;1.43;;;2.80;95.90;;;;;;5067277;28;20040;-80
2021/04/06 06:30:58;;;;;;;5.73;0.57;;;2.90;95.70;;;;;;5084427;28;20051;-77
2021/04/06 06:33:27;;;;;;;11.27;1.60;;;3.10;95.60;;;;;;5062657;28;20390;-76
2021/04/06 06:36:03;;;;;;;9.73;1.77;;;3.10;95.40;;;;;;5083594;28;20040;-76
2021/04/06 06:38:29;;;;;;;11.23;1.17;;;3.30;95.30;;;;;;5061904;28;20040;-76
2021/04/06 06:41:21;;;;;;;13.33;1.47;;;3.40;95.30;;;;;;5063069;28;20509;-76
2021/04/06 06:43:53;;;;;;;13.07;1.13;;;3.50;94.90;;;;;;5079909;28;20032;-76
2021/04/06 06:46:25;;;;;;;9.75;0.90;;;3.60;94.60;;;;;;5081640;28;20039;-76
2021/04/06 06:49:04;;;;;;;10.25;1.15;;;3.70;94.40;;;;;;5081640;28;20024;-76
2021/04/06 06:51:39;;;;;;;9.67;1.37;;;3.80;94.40;;;;;;5066499;28;20032;-76
2021/04/06 06:54:06;;;;;;;12.37;1.00;;;3.90;94.10;;;;;;5063836;28;20032;-77
2021/04/06 06:56:37;;;;;;;8.27;0.90;;;4.00;94.10;;;;;;5063057;28;20139;-75
2021/04/06 06:59:04;;;;;;;10.30;1.23;;;4.00;93.80;;;;;;5062938;28;20039;-75
2021/04/06 07:01:33;;;;;;;17.67;1.03;;;3.90;93.20;;;;;;5081177;28;20044;-75
2021/04/06 07:04:02;;;;;;;11.77;0.90;;;3.90;93.30;;;;;;5079875;28;20071;-75
2021/04/06 07:06:29;;;;;;;8.40;0.87;;;4.00;93.40;;;;;;5080331;28;20036;-76
2021/04/06 07:08:56;;;;;;;8.37;0.70;;;4.20;93.50;;;;;;5064524;28;20044;-75
2021/04/06 07:11:23;;;;;;;8.03;0.90;;;4.40;93.40;;;;;;5063997;28;20536;-76
2021/04/06 07:13:51;;;;;;;8.07;0.80;;;4.60;93.10;;;;;;5061909;28;20032;-76
2021/04/06 07:16:19;;;;;;;7.03;0.90;;;4.60;92.70;;;;;;5084827;28;20577;-76
2021/04/06 07:18:48;;;;;;;6.70;0.97;;;4.40;92.40;;;;;;5084473;28;20486;-75
2021/04/06 07:21:22;;;;;;;10.87;1.20;;;4.10;92.50;;;;;;5067905;28;20035;-75
2021/04/06 07:23:55;;;;;;;10.87;1.00;;;4.00;92.70;;;;;;5083583;28;20046;-75
2021/04/06 07:26:23;;;;;;;8.67;0.70;;;3.90;92.80;;;;;;5084964;28;20052;-76
2021/04/06 07:28:49;;;;;;;6.23;0.60;;;3.90;93.00;;;;;;5068216;28;20329;-75
2021/04/06 07:31:16;;;;;;;12.13;0.80;;;4.00;93.20;;;;;;5068885;28;20040;-75
2021/04/06 07:33:45;;;;;;;11.27;0.97;;;4.10;92.90;;;;;;5085806;28;20032;-75
2021/04/06 07:36:14;;;;;;;7.47;0.80;;;4.30;92.90;;;;;;5069248;28;20035;-78
2021/04/06 07:38:45;;;;;;;7.23;0.80;;;4.50;92.90;;;;;;5088573;28;20740;-78
2021/04/06 07:41:15;;;;;;;11.53;1.47;;;4.60;93.00;;;;;;5090503;28;20153;-79
2021/04/06 07:43:44;;;;;;;7.97;0.87;;;4.70;92.20;;;;;;5057093;28;20028;-78
2021/04/06 07:46:34;;;;;;;12.60;1.10;;;4.70;92.20;;;;;;5079930;28;20050;-79
2021/04/06 07:49:21;;;;;;;8.50;1.00;;;5.00;92.20;;;;;;5081336;28;20040;-78
2021/04/06 07:51:50;;;;;;;6.33;1.00;;;5.20;91.90;;;;;;5088712;28;20062;-79
2021/04/06 07:54:25;;;;;;;7.63;0.87;;;5.30;91.60;;;;;;5055456;28;20032;-76
2021/04/06 07:57:02;;;;;;;8.53;1.10;;;5.40;91.50;;;;;;5089761;28;20402;-75
2021/04/06 07:59:28;;;;;;;7.60;0.77;;;5.30;91.00;;;;;;5070072;28;20044;-76
2021/04/06 08:01:56;;;;;;;10.37;0.87;;;5.40;90.70;;;;;;5086422;28;20081;-79
2021/04/06 08:04:27;;;;;;;7.93;1.00;;;5.40;89.40;;;;;;5083401;28;20399;-76
2021/04/06 08:06:56;;;;;;;12.43;1.00;;;5.30;89.40;;;;;;5068765;28;20035;-77
2021/04/06 08:09:29;;;;;;;8.77;1.30;;;5.10;90.00;;;;;;5084027;28;20045;-77
2021/04/06 08:12:06;;;;;;;;;;;5.20;90.50;;;;;;5085019;28;20032;-79
2021/04/06 08:14:44;;;;;;;7.77;0.50;;;5.20;90.20;;;;;;5082889;28;19912;-78
2021/04/06 08:17:28;;;;;;;5.17;0.40;;;5.20;89.50;;;;;;5087273;28;20047;-77
2021/04/06 08:19:59;;;;;;;7.10;0.50;;;5.20;89.30;;;;;;5082425;28;20044;-76
2021/04/06 08:22:32;;;;;;;8.07;0.53;;;5.30;89.30;;;;;;5081788;28;20028;-76
2021/04/06 08:25:17;;;;;;;8.10;1.27;;;5.40;88.50;;;;;;5080732;28;20293;-80
2021/04/06 08:27:46;;;;;;;5.43;0.70;;;5.50;88.40;;;;;;5060892;28;20028;-78
2021/04/06 08:30:15;;;;;;;5.53;0.50;;;5.60;88.90;;;;;;5062188;28;20036;-79
2021/04/06 08:33:09;;;;;;;7.30;0.70;;;5.70;87.60;;;;;;5060076;28;20040;-76
2021/04/06 08:35:48;;;;;;;6.05;1.00;;;5.90;85.90;;;;;;5062156;28;20390;-75
2021/04/06 08:40:54;;;;;;;7.80;0.90;;;6.30;85.60;;;;;;5062589;28;20028;-76
2021/04/06 08:43:27;;;;;;;5.30;0.60;;;6.30;87.00;;;;;;5063109;28;20069;-77
2021/04/06 08:46:01;;;;;;;3.53;0.77;;;6.30;86.10;;;;;;5084344;28;20055;-81
2021/04/06 08:51:32;;;;;;;9.95;1.67;;;6.10;86.10;;;;;;5082746;28;20041;-78
2021/04/06 08:54:04;;;;;;;5.97;0.90;;;6.10;86.40;;;;;;5064802;28;20056;-75
2021/04/06 08:56:33;;;;;;;6.28;0.70;;;6.30;86.10;;;;;;5081530;28;20041;-79
2021/04/06 08:59:21;;;;;;;3.73;0.30;;;6.50;85.20;;;;;;5065403;28;20040;-77
2021/04/06 09:01:57;;;;;;;7.97;0.50;;;6.70;83.80;;;;;;5079180;28;20032;-78
2021/04/06 09:04:30;;;;;;;2.92;0.30;;;6.80;83.30;;;;;;5081664;28;20043;-78
2021/04/06 09:06:59;;;;;;;3.53;0.40;;;6.80;82.00;;;;;;5084015;28;20403;-77
2021/04/06 09:09:28;;;;;;;3.13;0.30;;;6.60;81.90;;;;;;5082802;28;20056;-78
2021/04/06 09:11:56;;;;;;;5.57;0.40;;;6.40;82.00;;;;;;5061779;28;20052;-78
2021/04/06 09:14:24;;;;;;;3.38;0.30;;;6.10;82.20;;;;;;5081238;28;20044;-78
2021/04/06 09:16:52;;;;;;;4.10;0.40;;;6.00;83.80;;;;;;5082594;28;20063;-79
2021/04/06 09:19:20;;;;;;;3.53;0.50;;;5.90;83.90;;;;;;5080110;28;20036;-79
2021/04/06 09:21:56;;;;;;;3.42;0.32;;;6.00;84.20;;;;;;5050536;28;20391;-81
2021/04/06 09:24:26;;;;;;;2.72;0.30;;;6.10;85.20;;;;;;5066230;28;20028;-79
2021/04/06 09:26:56;;;;;;;2.00;0.30;;;6.30;85.90;;;;;;5065472;28;20024;-79
2021/04/06 09:29:25;;;;;;;5.95;0.40;;;6.40;84.50;;;;;;5085391;28;20037;-80
2021/04/06 09:31:55;;;;;;;5.07;0.50;;;6.50;84.70;;;;;;5066233;28;20032;-80
2021/04/06 09:34:34;;;;;;;5.32;0.50;;;6.70;84.20;;;;;;5054814;28;20039;-80
2021/04/06 09:37:03;;;;;;;6.57;0.40;;;6.80;83.70;;;;;;5083263;28;20040;-81
2021/04/06 09:39:30;;;;;;;4.38;0.65;;;7.00;84.10;;;;;;5083554;28;20028;-81
2021/04/06 09:41:58;;;;;;;3.92;0.45;;;7.30;83.20;;;;;;5083816;28;20040;-77
2021/04/06 09:44:28;;;;;;;5.15;0.40;;;7.60;83.00;;;;;;5081460;28;20044;-77
2021/04/06 09:46:57;;;;;;;3.58;0.30;;;7.80;80.60;;;;;;5084460;28;20690;-76
2021/04/06 09:49:30;;;;;;;5.10;0.40;;;7.70;79.20;;;;;;5049642;28;20047;-76
2021/04/06 09:51:57;;;;;;;2.13;0.30;;;7.40;76.90;;;;;;5047205;28;20044;-77
2021/04/06 09:54:26;;;;;;;5.75;0.95;;;7.10;74.60;;;;;;5049699;28;20896;-77
2021/04/06 09:56:54;;;;;;;2.55;0.30;;;7.00;73.20;;;;;;5082574;28;20036;-77
2021/04/06 09:59:21;;;;;;;3.00;0.30;;;6.80;72.70;;;;;;5085822;28;20032;-81
2021/04/06 10:01:54;;;;;;;4.53;0.38;;;6.80;74.10;;;;;;5065863;28;20028;-81
2021/04/06 10:04:41;;;;;;;3.03;0.20;;;6.80;75.50;;;;;;5067954;28;20044;-81
2021/04/06 10:07:22;;;;;;;3.15;0.30;;;7.00;76.40;;;;;;5064886;28;20036;-82
2021/04/06 10:09:52;;;;;;;2.75;0.35;;;7.20;77.60;;;;;;5084550;28;20036;-79
2021/04/06 10:12:21;;;;;;;4.78;0.47;;;7.30;78.10;;;;;;5067341;28;20051;-80
2021/04/06 10:14:49;;;;;;;6.35;0.65;;;7.50;77.00;;;;;;5081734;28;20035;-77
2021/04/06 10:17:33;;;;;;;2.33;0.30;;;7.60;77.90;;;;;;5066321;28;20114;-76
2021/04/06 10:20:07;;;;;;;3.65;0.45;;;7.90;77.50;;;;;;5061992;28;20522;-76
2021/04/06 10:22:39;;;;;;;2.83;0.43;;;8.20;77.10;;;;;;5063381;28;20032;-76
2021/04/06 10:25:06;;;;;;;4.28;0.40;;;8.40;76.60;;;;;;5083600;28;20422;-76
2021/04/06 10:27:42;;;;;;;2.08;0.45;;;8.60;76.00;;;;;;5055925;28;20045;-77
2021/04/06 10:30:26;;;;;;;2.75;0.50;;;8.80;75.90;;;;;;5065472;28;20043;-76
2021/04/06 10:33:15;;;;;;;4.70;0.47;;;9.10;75.50;;;;;;5047213;28;20055;-75
2021/04/06 10:35:52;;;;;;;3.38;0.57;;;9.30;74.80;;;;;;5080103;28;20382;-78
2021/04/06 10:38:20;;;;;;;5.43;0.50;;;9.30;73.10;;;;;;5067157;28;20036;-81
2021/04/06 10:40:48;;;;;;;8.05;1.17;;;9.10;71.90;;;;;;5084918;28;20043;-82
2021/04/06 10:43:21;;;;;;;3.33;0.40;;;8.90;71.10;;;;;;5066515;28;20040;-82
2021/04/06 10:45:52;;;;;;;;;;;8.90;72.80;;;;;;5081665;28;20032;-79
2021/04/06 10:48:22;;;;;;;4.28;0.50;;;9.30;68.60;;;;;;5065179;28;19912;-80
2021/04/06 10:50:51;;;;;;;3.50;0.50;;;9.50;69.50;;;;;;5088847;28;20035;-80
2021/04/06 10:53:20;;;;;;;3.35;0.40;;;9.70;68.80;;;;;;5068681;28;20478;-80
2021/04/06 10:55:51;;;;;;;8.10;0.70;;;9.60;67.70;;;;;;5034930;28;20047;-80
2021/04/06 10:58:33;;;;;;;4.80;0.50;;;9.20;68.20;;;;;;5087280;28;20039;-81
2021/04/06 11:01:05;;;;;;;4.85;0.60;;;8.50;70.30;;;;;;5065857;28;20040;-77
2021/04/06 11:03:44;;;;;;;7.32;0.47;;;7.90;72.00;;;;;;5082709;28;20055;-77
2021/04/06 11:06:23;;;;;;;3.80;0.40;;;7.30;73.70;;;;;;5086439;28;20040;-77
2021/04/06 11:08:52;;;;;;;3.92;0.50;;;7.00;76.50;;;;;;5070050;28;20086;-76
2021/04/06 11:11:25;;;;;;;5.63;0.70;;;7.10;78.70;;;;;;5067129;28;20047;-77
2021/04/06 11:13:57;;;;;;;3.08;0.40;;;7.70;78.30;;;;;;5084522;28;20039;-78
2021/04/06 11:16:25;;;;;;;7.18;1.48;;;8.30;76.40;;;;;;5067879;28;20036;-77
2021/04/06 11:19:07;;;;;;;3.75;0.50;;;9.00;73.50;;;;;;5086615;28;20051;-75
2021/04/06 11:21:35;;;;;;;5.10;0.63;;;9.50;73.00;;;;;;5086077;28;20521;-78
2021/04/06 11:24:03;;;;;;;3.38;0.40;;;10.20;72.00;;;;;;5051453;28;20044;-86
2021/04/06 11:26:30;;;;;;;5.88;0.60;;;10.80;69.70;;;;;;5088540;28;20052;-83
2021/04/06 11:28:56;;;;;;;3.72;0.50;;;11.20;66.80;;;;;;5070279;28;20446;-79
2021/04/06 11:31:24;;;;;;;1.77;0.57;;;11.40;65.70;;;;;;5069058;28;20040;-82
2021/04/06 11:33:51;;;;;;;5.95;0.50;;;11.50;65.80;;;;;;5070230;28;20032;-82
2021/04/06 11:36:18;;;;;;;4.97;0.50;;;11.70;65.70;;;;;;5087609;28;20032;-82
2021/04/06 11:38:45;;;;;;;2.33;0.32;;;11.40;63.70;;;;;;5069554;28;20428;-82
2021/04/06 11:41:11;;;;;;;2.05;0.40;;;10.80;64.20;;;;;;5069463;28;20035;-82
2021/04/06 11:43:38;;;;;;;2.72;0.30;;;9.90;68.30;;;;;;5068456;28;20048;-83
2021/04/06 11:46:05;;;;;;;3.65;0.40;;;9.20;69.10;;;;;;5065116;28;20036;-76
2021/04/06 11:48:31;;;;;;;4.00;0.30;;;8.40;70.50;;;;;;5052453;28;20047;-76
2021/04/06 11:50:58;;;;;;;4.40;0.50;;;7.70;71.40;;;;;;5087263;28;20051;-76
2021/04/06 11:53:24;;;;;;;1.70;0.20;;;7.20;73.40;;;;;;5052809;28;20487;-77
2021/04/06 11:55:51;;;;;;;2.08;0.20;;;7.00;74.30;;;;;;5073945;28;20036;-77
2021/04/06 11:58:18;;;;;;;1.38;0.10;;;6.70;74.80;;;;;;5044705;28;20040;-76
2021/04/06 12:00:44;;;;;;;1.45;0.20;;;6.50;74.90;;;;;;5057434;28;20036;-78
2021/04/06 12:03:11;;;;;;;1.63;0.25;;;6.20;75.10;;;;;;5087913;28;20059;-75
2021/04/06 12:05:37;;;;;;;1.83;0.40;;;6.00;75.80;;;;;;5089529;28;20039;-73
2021/04/06 12:08:04;;;;;;;3.85;0.32;;;5.90;76.80;;;;;;5091397;28;20371;-73
2021/04/06 12:10:34;;;;;;;2.47;0.15;;;6.00;78.10;;;;;;5092768;28;20036;-75
2021/04/06 12:13:00;;;;;;;1.88;0.20;;;6.90;78.20;;;;;;5085482;28;20044;-76
2021/04/06 12:15:27;;;;;;;1.90;0.20;;;8.20;77.40;;;;;;5050071;28;20032;-76
2021/04/06 12:17:55;;;;;;;1.38;0.20;;;9.30;71.20;;;;;;5067147;28;20078;-76
2021/04/06 12:20:21;;;;;;;3.13;0.57;;;10.30;71.50;;;;;;5053419;28;20039;-75
2021/04/06 12:22:49;;;;;;;2.50;0.20;;;11.30;70.70;;;;;;5082038;28;20040;-76
2021/04/06 12:25:17;;;;;;;1.13;0.20;;;12.10;66.20;;;;;;5067659;28;20491;-77
2021/04/06 12:27:54;;;;;;;1.92;0.22;;;12.60;66.00;;;;;;5068310;28;20036;-76
2021/04/06 12:30:21;;;;;;;2.47;0.20;;;13.10;64.90;;;;;;5051863;28;20040;-76
2021/04/06 12:32:48;;;;;;;2.00;0.50;;;13.90;63.60;;;;;;5033076;28;20489;-77
2021/04/06 12:35:14;;;;;;;3.92;0.30;;;14.30;61.90;;;;;;5049351;28;20028;-76
2021/04/06 12:37:42;;;;;;;3.38;0.75;;;14.70;56.50;;;;;;5084344;28;20044;-77
2021/04/06 12:40:09;;;;;;;2.60;0.50;;;14.90;58.90;;;;;;5039023;28;20035;-76
2021/04/06 12:42:37;;;;;;;2.25;0.50;;;15.30;55.30;;;;;;5036056;28;20032;-77
2021/04/06 12:45:06;;;;;;;3.42;0.50;;;15.70;55.10;;;;;;5067706;28;20036;-77
2021/04/06 12:47:32;;;;;;;3.80;0.57;;;15.70;52.40;;;;;;5084224;28;20058;-76
2021/04/06 12:49:59;;;;;;;2.70;0.40;;;14.90;55.50;;;;;;5066980;28;20732;-77
2021/04/06 12:52:26;;;;;;;2.58;0.50;;;13.80;56.30;;;;;;5083795;28;20044;-77
2021/04/06 12:54:52;;;;;;;3.67;0.50;;;12.40;59.30;;;;;;5085181;28;20056;-77
2021/04/06 12:57:19;;;;;;;2.53;0.32;;;11.20;62.50;;;;;;5067797;28;20517;-77
2021/04/06 12:59:45;;;;;;;3.08;0.40;;;10.10;64.40;;;;;;5082203;28;20043;-77
2021/04/06 13:02:12;;;;;;;3.03;0.30;;;9.10;66.20;;;;;;5084536;28;20039;-77
2021/04/06 13:04:38;;;;;;;3.08;0.30;;;8.30;67.30;;;;;;5083936;28;20040;-76
2021/04/06 13:07:05;;;;;;;2.00;0.30;;;7.80;69.10;;;;;;5033388;28;20067;-76
2021/04/06 13:09:32;;;;;;;2.83;0.20;;;7.40;69.70;;;;;;5067709;28;20039;-76
2021/04/06 13:11:59;;;;;;;1.95;0.30;;;7.20;71.00;;;;;;5064131;28;20063;-76
2021/04/06 13:14:26;;;;;;;1.30;0.20;;;7.20;72.00;;;;;;5084172;28;20056;-76
2021/04/06 13:16:53;;;;;;;3.83;0.40;;;7.30;72.60;;;;;;5082212;28;20032;-76
2021/04/06 13:19:19;;;;;;;1.75;0.20;;;7.40;72.10;;;;;;5067842;28;20043;-76
2021/04/06 13:21:46;;;;;;;3.30;0.50;;;7.40;71.10;;;;;;5064149;28;20497;-76